Flight Track Log - Related Links

Times and Time Zones

All times are in EDT time to prevent confusion due to time zone crossing. See the CSN6763 flight status page for this flight to view local times or setup timezone preferences in your user account.

Time Position Orientation Groundspeed Altitude Reporting Facility
EDT Latitude Longitude Course Direction KTS MPH feet Rate Location/Type
Tue 12:07:00 AM 34.8579 112.3440 343° North  Level Estimated
Tue 12:08:00 AM 34.9746 112.2995 343° North  Level Estimated
Tue 12:09:00 AM 35.0914 112.2550 343° North  Level Estimated
Tue 12:10:00 AM 35.2081 112.2103 343° North  Level Estimated
Tue 12:11:00 AM 35.3248 112.1654 343° North  Level Estimated
Tue 12:12:00 AM 35.4415 112.1204 343° North  Level Estimated
Tue 12:13:00 AM 35.5582 112.0753 343° North  Level Estimated
Tue 12:14:00 AM 35.6748 112.0301 343° North  Level Estimated
Tue 12:15:00 AM 35.7914 111.9847 342° North  Level Estimated
Tue 12:16:00 AM 35.9081 111.9392 342° North  Level Estimated
Tue 12:17:00 AM 36.0247 111.8936 342° North  Level Estimated
Tue 12:18:00 AM 36.1413 111.8478 342° North  Level Estimated
Tue 12:19:00 AM 36.2578 111.8019 342° North  Level Estimated
Tue 12:20:00 AM 36.3744 111.7559 342° North  Level Estimated
Tue 12:21:00 AM 36.4909 111.7097 342° North  Level Estimated
Tue 12:22:00 AM 36.6074 111.6634 342° North  Level Estimated
Tue 12:23:00 AM 36.7239 111.6169 342° North  Level Estimated
Tue 12:24:00 AM 36.8404 111.5703 342° North  Level Estimated
Tue 12:25:00 AM 36.9568 111.5236 342° North  Level Estimated
Tue 12:26:00 AM 37.0733 111.4767 342° North  Level Estimated
Tue 12:27:00 AM 37.1897 111.4297 342° North  Level Estimated
Tue 12:28:00 AM 37.3061 111.3825 342° North  Level Estimated
Tue 12:29:00 AM 37.4225 111.3352 342° North  Level Estimated
Tue 12:30:00 AM 37.5389 111.2877 342° North  Level Estimated
Tue 12:31:00 AM 37.6552 111.2401 342° North  Level Estimated
Tue 12:32:00 AM 37.7715 111.1923 342° North  Level Estimated
Tue 12:33:00 AM 37.8879 111.1444 342° North  Level Estimated
Tue 12:34:00 AM 38.0042 111.0963 342° North  Level Estimated
Tue 12:35:00 AM 38.1204 111.0481 342° North  Level Estimated
Tue 12:36:00 AM 38.2367 110.9997 342° North  Level Estimated
Tue 12:37:00 AM 38.3529 110.9512 342° North  Level Estimated
Tue 12:38:00 AM 38.4691 110.9025 342° North  Level Estimated
Tue 12:39:00 AM 38.5853 110.8537 342° North  Level Estimated
Tue 12:40:00 AM 38.7015 110.8047 342° North  Level Estimated
Tue 12:41:00 AM 38.8176 110.7555 342° North  Level Estimated
Tue 12:42:00 AM 38.9338 110.7062 342° North  Level Estimated
Tue 12:43:00 AM 39.0499 110.6567 342° North  Level Estimated
Tue 12:44:00 AM 39.1660 110.6071 342° North  Level Estimated
Tue 12:45:00 AM 39.2820 110.5573 342° North  Level Estimated
Tue 12:46:00 AM 39.3981 110.5073 342° North  Level Estimated
Tue 12:47:00 AM 39.5141 110.4571 342° North  Level Estimated
Tue 12:48:00 AM 39.6301 110.4068 342° North  Level Estimated
Tue 12:49:00 AM 39.7461 110.3563 341° North  Level Estimated
Tue 12:50:00 AM 39.8620 110.3057 341° North  Level Estimated
Tue 12:51:00 AM 39.9780 110.2549 341° North  Level Estimated
Tue 12:52:00 AM 40.0939 110.2039 341° North  Level Estimated
Tue 12:53:00 AM 40.2098 110.1527 341° North  Level Estimated
Tue 12:54:00 AM 40.3256 110.1014 341° North  Level Estimated
Tue 12:55:00 AM 40.4415 110.0499 341° North  Level Estimated
Tue 12:56:00 AM 40.5573 109.9982 341° North  Level Estimated
Tue 12:57:00 AM 40.5600 109.9969 341° North  Level Estimated
Tue 12:58:00 AM 40.5600 109.9969 108° East  Level Estimated
Tue 12:59:00 AM 40.5600 109.9969 108° East  Level Estimated
Tue 01:00:00 AM 40.5600 109.9969 108° East  Level Estimated
Tue 01:01:00 AM 40.5600 109.9969 108° East  Level Estimated
Tue 01:02:00 AM 40.5600 109.9969 108° East  Level Estimated
Tue 01:03:00 AM 40.5600 109.9969 108° East  Level Estimated
Tue 01:04:00 AM 40.5600 109.9969 108° East  Level Estimated
Tue 01:05:00 AM 40.5600 109.9969 108° East  Level Estimated
Tue 01:06:00 AM 40.5600 109.9969 108° East  Level Estimated
Tue 01:07:00 AM 40.5600 109.9969 108° East  Level Estimated
Tue 01:08:00 AM 40.5600 109.9969 108° East  Level Estimated
Tue 01:09:00 AM 40.5600 109.9969 108° East  Level Estimated
Tue 01:10:00 AM 40.5600 109.9969 108° East  Level Estimated
Tue 01:11:00 AM 40.5600 109.9969 108° East  Level Estimated
Tue 01:12:00 AM 40.5600 109.9969 108° East  Level Estimated

Login

Don't have an account? Register now (free) for customized features, flight alerts, and more!